createdAt,value
2024-03-05T00:01:05.876Z,48.97
2024-03-05T00:03:43.348Z,42.47
2024-03-05T00:06:11.112Z,53.50
2024-03-05T00:08:38.761Z,50.92
2024-03-05T00:11:22.287Z,56.42
2024-03-05T00:16:21.950Z,48.40
2024-03-05T00:18:49.245Z,48.75
2024-03-05T00:21:21.439Z,54.53
2024-03-05T00:23:53.424Z,49.92
2024-03-05T00:26:31.156Z,45.30
2024-03-05T00:28:58.464Z,49.40
2024-03-05T00:31:26.782Z,50.20
2024-03-05T00:33:54.284Z,53.08
2024-03-05T00:36:22.057Z,55.25
2024-03-05T00:38:54.453Z,56.25
2024-03-05T00:41:26.452Z,48.85
2024-03-05T00:43:55.365Z,55.45
2024-03-05T00:46:28.063Z,54.90
2024-03-05T00:48:59.378Z,57.38
2024-03-05T00:51:31.989Z,52.25
2024-03-05T00:53:59.170Z,51.30
2024-03-05T00:56:28.491Z,55.15
2024-03-05T00:59:01.432Z,53.83
2024-03-05T01:01:29.204Z,52.70
2024-03-05T01:03:56.716Z,51.95
2024-03-05T01:06:24.525Z,51.97
2024-03-05T01:08:51.928Z,59.10
2024-03-05T01:11:19.671Z,59.38
2024-03-05T01:13:51.475Z,60.33
2024-03-05T01:16:25.109Z,53.45
2024-03-05T01:18:52.473Z,55.60
2024-03-05T01:21:24.826Z,47.03
2024-03-05T01:23:52.174Z,51.83
2024-03-05T01:26:19.885Z,51.28
2024-03-05T01:28:47.258Z,54.25
2024-03-05T01:31:21.289Z,55.40
2024-03-05T01:33:48.695Z,58.83
2024-03-05T01:36:16.537Z,55.42
2024-03-05T01:38:43.883Z,52.28
2024-03-05T01:41:11.577Z,53.25
2024-03-05T01:43:38.973Z,48.15
2024-03-05T01:46:11.560Z,50.88
2024-03-05T01:48:43.060Z,46.78
2024-03-05T01:51:12.297Z,60.58
2024-03-05T01:53:39.913Z,61.22
2024-03-05T01:56:12.770Z,56.58
2024-03-05T01:58:41.354Z,62.20
2024-03-05T02:01:15.048Z,62.80
2024-03-05T02:03:43.992Z,64.25
2024-03-05T02:06:16.739Z,59.10
2024-03-05T02:08:44.291Z,56.13
2024-03-05T02:11:13.385Z,71.05
2024-03-05T02:13:41.021Z,66.63
2024-03-05T02:16:08.831Z,64.47
2024-03-05T02:18:43.442Z,62.80
2024-03-05T02:21:21.180Z,61.10
2024-03-05T02:23:52.439Z,58.85
2024-03-05T02:26:24.422Z,66.75
2024-03-05T02:28:53.116Z,59.90
2024-03-05T02:31:26.584Z,62.22
2024-03-05T02:33:58.444Z,68.20
2024-03-05T02:36:30.903Z,66.28
2024-03-05T02:38:58.237Z,66.65
2024-03-05T02:41:36.490Z,61.83
2024-03-05T02:44:04.043Z,65.25
2024-03-05T02:46:35.964Z,56.50
2024-03-05T02:49:03.311Z,66.47
2024-03-05T02:51:36.123Z,63.05
2024-03-05T02:54:03.532Z,59.85
2024-03-05T02:56:35.795Z,63.35
2024-03-05T02:59:05.721Z,66.95
2024-03-05T03:01:36.261Z,62.15
2024-03-05T03:04:03.719Z,62.03
2024-03-05T03:06:35.841Z,61.05
2024-03-05T03:09:05.084Z,58.15
2024-03-05T03:11:33.553Z,51.28
2024-03-05T03:14:00.992Z,55.95
2024-03-05T03:16:28.941Z,51.53
2024-03-05T03:18:56.292Z,49.47
2024-03-05T03:21:24.064Z,48.58
2024-03-05T03:23:52.805Z,48.80
2024-03-05T03:26:21.091Z,52.67
2024-03-05T03:28:48.487Z,51.22
2024-03-05T03:31:18.230Z,47.95
2024-03-05T03:33:45.651Z,45.28
2024-03-05T03:36:22.882Z,45.08
2024-03-05T03:38:50.556Z,49.60
2024-03-05T03:41:20.008Z,44.22
2024-03-05T03:43:47.548Z,51.50
2024-03-05T03:46:16.033Z,46.65
2024-03-05T03:48:43.431Z,40.47
2024-03-05T03:51:11.311Z,42.08
2024-03-05T03:53:38.738Z,37.92
2024-03-05T03:56:07.132Z,40.13
2024-03-05T03:58:35.983Z,36.65
2024-03-05T04:01:04.605Z,39.67
2024-03-05T04:03:32.097Z,40.30
2024-03-05T04:05:59.867Z,53.63
2024-03-05T04:08:27.234Z,39.15
2024-03-05T04:10:57.803Z,45.45
2024-03-05T04:13:25.177Z,40.47
2024-03-05T04:15:55.014Z,43.28
2024-03-05T04:18:22.404Z,47.25
2024-03-05T04:20:50.495Z,46.55
2024-03-05T04:23:18.194Z,43.05
2024-03-05T04:25:45.991Z,43.10
2024-03-05T04:28:13.512Z,44.97
2024-03-05T04:30:41.968Z,40.92
2024-03-05T04:33:10.955Z,52.83
2024-03-05T04:35:38.921Z,44.13
2024-03-05T04:38:09.198Z,49.53
2024-03-05T04:40:37.341Z,57.55
2024-03-05T04:43:05.268Z,53.22
2024-03-05T04:45:38.651Z,55.47
2024-03-05T04:48:06.532Z,53.35
2024-03-05T04:50:36.303Z,45.95
2024-03-05T04:53:03.881Z,56.63
2024-03-05T04:55:32.216Z,50.38
2024-03-05T04:57:59.713Z,47.25
2024-03-05T05:00:31.537Z,54.17
2024-03-05T05:02:59.192Z,52.97
2024-03-05T05:05:27.969Z,54.03
2024-03-05T05:07:59.791Z,52.08
2024-03-05T05:10:27.935Z,55.85
2024-03-05T05:12:55.768Z,48.63
2024-03-05T05:15:29.122Z,51.35
2024-03-05T05:17:56.717Z,51.97
2024-03-05T05:20:24.650Z,52.45
2024-03-05T05:22:53.325Z,45.95
2024-03-05T05:25:22.687Z,47.55
2024-03-05T05:27:50.410Z,46.25
2024-03-05T05:30:19.477Z,47.97
2024-03-05T05:32:47.692Z,47.20
2024-03-05T05:35:17.426Z,45.85
2024-03-05T05:37:44.900Z,42.40
2024-03-05T05:40:13.370Z,44.15
2024-03-05T05:42:43.305Z,47.00
2024-03-05T05:45:11.079Z,44.00
2024-03-05T05:47:39.280Z,45.17
2024-03-05T05:50:08.678Z,41.75
2024-03-05T05:52:36.194Z,40.72
2024-03-05T05:55:04.855Z,43.50
2024-03-05T05:57:32.372Z,39.83
2024-03-05T06:00:02.232Z,37.00
2024-03-05T06:02:30.023Z,37.58
2024-03-05T06:04:58.325Z,39.15
2024-03-05T06:07:25.716Z,38.97
2024-03-05T06:09:54.182Z,39.20
2024-03-05T06:12:24.086Z,37.75
2024-03-05T06:14:53.266Z,40.45
2024-03-05T06:17:22.332Z,40.08
2024-03-05T06:19:50.571Z,36.88
2024-03-05T06:22:23.254Z,37.25
2024-03-05T06:24:54.833Z,41.20
2024-03-05T06:27:22.508Z,31.58
2024-03-05T06:29:50.485Z,42.05
2024-03-05T06:32:17.872Z,36.50
2024-03-05T06:34:47.083Z,39.03
2024-03-05T06:37:16.442Z,35.85
2024-03-05T06:39:44.841Z,40.92
2024-03-05T06:42:12.452Z,36.85
2024-03-05T06:44:42.825Z,40.08
2024-03-05T06:47:13.157Z,35.17
2024-03-05T06:49:41.037Z,35.28
2024-03-05T06:52:10.207Z,43.08
2024-03-05T06:54:38.275Z,39.22
2024-03-05T06:57:06.119Z,35.50
2024-03-05T06:59:34.343Z,39.28
2024-03-05T07:02:02.418Z,33.10
2024-03-05T07:04:30.802Z,33.17
2024-03-05T07:06:58.678Z,33.15
2024-03-05T07:09:29.801Z,34.22
2024-03-05T07:12:00.698Z,30.08
2024-03-05T07:14:28.978Z,34.33
2024-03-05T07:16:56.670Z,32.65
2024-03-05T07:19:24.873Z,28.95
2024-03-05T07:21:53.072Z,31.90
2024-03-05T07:24:21.054Z,31.27
2024-03-05T07:26:56.765Z,36.72
2024-03-05T07:29:32.472Z,32.15
2024-03-05T07:32:00.009Z,29.75
2024-03-05T07:34:27.902Z,28.45
2024-03-05T07:36:58.923Z,27.52
2024-03-05T07:39:26.938Z,30.50
2024-03-05T07:41:55.826Z,32.72
2024-03-05T07:44:23.740Z,30.02
2024-03-05T07:46:51.491Z,37.65
2024-03-05T07:49:22.449Z,32.92
2024-03-05T07:51:52.270Z,27.50
2024-03-05T07:54:20.050Z,27.27
2024-03-05T07:56:48.124Z,27.58
2024-03-05T07:59:17.690Z,27.23
2024-03-05T08:01:48.582Z,28.55
2024-03-05T08:04:16.980Z,28.08
2024-03-05T08:06:44.928Z,27.65
2024-03-05T08:09:13.263Z,27.00
2024-03-05T08:11:41.231Z,26.27
2024-03-05T08:14:09.954Z,27.75
2024-03-05T08:16:40.396Z,25.63
2024-03-05T08:19:09.158Z,26.02
2024-03-05T08:21:36.391Z,25.55
2024-03-05T08:24:07.489Z,28.02
2024-03-05T08:26:35.378Z,24.63
2024-03-05T08:29:03.559Z,23.23
2024-03-05T08:31:31.529Z,20.17
2024-03-05T08:34:01.246Z,25.20
2024-03-05T08:36:28.953Z,23.73
2024-03-05T08:38:59.913Z,25.33
2024-03-05T08:41:27.691Z,25.38
2024-03-05T08:43:56.047Z,22.95
2024-03-05T08:46:29.511Z,24.52
2024-03-05T08:48:57.803Z,27.08
2024-03-05T08:51:27.353Z,22.42
2024-03-05T08:53:56.973Z,18.77
2024-03-05T08:56:24.542Z,19.33
2024-03-05T08:58:54.852Z,17.73
2024-03-05T09:01:22.939Z,17.35
2024-03-05T09:03:51.070Z,18.73
2024-03-05T09:06:22.755Z,20.13
2024-03-05T09:08:52.841Z,21.35
2024-03-05T09:11:22.700Z,18.63
2024-03-05T09:13:50.616Z,24.90
2024-03-05T09:16:19.250Z,23.13
2024-03-05T09:18:48.362Z,21.50
2024-03-05T09:21:16.277Z,20.30
2024-03-05T09:23:45.313Z,18.38
2024-03-05T09:26:14.590Z,21.25
2024-03-05T09:28:42.967Z,25.75
2024-03-05T09:31:10.659Z,25.42
2024-03-05T09:33:38.384Z,20.50
2024-03-05T09:36:07.040Z,24.20
2024-03-05T09:38:35.401Z,22.52
2024-03-05T09:41:06.725Z,21.77
2024-03-05T09:43:41.588Z,18.60
2024-03-05T09:46:10.121Z,24.15
2024-03-05T09:48:38.674Z,18.33
2024-03-05T09:51:09.496Z,22.35
2024-03-05T09:53:38.608Z,19.60
2024-03-05T09:56:07.614Z,19.73
2024-03-05T09:58:39.131Z,23.00
2024-03-05T10:01:08.088Z,21.85
2024-03-05T10:03:38.134Z,18.98
2024-03-05T10:06:07.892Z,20.13
2024-03-05T10:08:36.751Z,21.45
2024-03-05T10:11:05.726Z,23.05
2024-03-05T10:13:37.205Z,19.10
2024-03-05T10:16:15.298Z,23.33
2024-03-05T10:21:17.645Z,20.13
2024-03-05T10:23:46.642Z,21.08
2024-03-05T10:26:24.445Z,20.35
2024-03-05T10:28:56.498Z,21.60
2024-03-05T10:31:25.587Z,22.02
2024-03-05T10:33:55.322Z,21.80
2024-03-05T10:36:30.202Z,21.42
2024-03-05T10:39:01.966Z,23.45
2024-03-05T10:41:39.289Z,20.70
2024-03-05T10:44:19.400Z,21.25
2024-03-05T10:46:48.490Z,21.05
2024-03-05T10:49:17.512Z,22.00
2024-03-05T10:51:47.024Z,22.58
2024-03-05T10:54:15.820Z,21.45
2024-03-05T10:56:48.889Z,18.75
2024-03-05T10:59:19.043Z,21.20
2024-03-05T11:01:50.075Z,19.75
2024-03-05T11:04:25.838Z,21.02
2024-03-05T11:06:56.837Z,19.13
2024-03-05T11:09:25.367Z,18.48
2024-03-05T11:11:58.516Z,17.48
2024-03-05T11:14:28.944Z,20.98
2024-03-05T11:17:04.528Z,21.40
2024-03-05T11:19:32.981Z,20.33
2024-03-05T11:22:00.668Z,23.50
2024-03-05T11:24:28.447Z,23.20
2024-03-05T11:27:02.997Z,20.40
2024-03-05T11:29:38.611Z,23.08
2024-03-05T11:32:11.305Z,22.90
2024-03-05T11:34:46.616Z,22.77
2024-03-05T11:37:17.000Z,25.48
2024-03-05T11:39:47.718Z,22.08
2024-03-05T11:42:18.797Z,22.60
2024-03-05T11:44:57.881Z,23.02
2024-03-05T11:47:26.343Z,21.40
2024-03-05T11:49:55.438Z,22.60
2024-03-05T11:52:25.423Z,24.25
2024-03-05T11:55:01.252Z,23.70
2024-03-05T11:57:29.244Z,22.17
2024-03-05T11:59:59.158Z,22.23
2024-03-05T12:02:26.865Z,24.52
2024-03-05T12:05:03.949Z,22.58
2024-03-05T12:07:31.501Z,18.52
2024-03-05T12:09:59.565Z,25.63
2024-03-05T12:12:27.801Z,20.10
2024-03-05T12:14:56.838Z,20.58
2024-03-05T12:17:37.596Z,20.77
2024-03-05T12:20:10.504Z,22.05
2024-03-05T12:22:39.227Z,22.77
2024-03-05T12:25:15.723Z,23.05
2024-03-05T12:27:51.081Z,22.25
2024-03-05T12:30:35.084Z,22.05
2024-03-05T12:33:07.643Z,24.23
2024-03-05T12:35:37.576Z,20.83
2024-03-05T12:38:25.156Z,26.73
2024-03-05T12:41:04.428Z,23.70
2024-03-05T12:43:32.516Z,24.42
2024-03-05T12:46:01.110Z,27.15
2024-03-05T12:48:30.001Z,20.80
2024-03-05T12:51:01.035Z,22.70
2024-03-05T12:53:28.671Z,21.55
2024-03-05T12:56:03.261Z,23.77
2024-03-05T12:58:42.527Z,20.80
2024-03-05T13:01:10.930Z,21.40
2024-03-05T13:03:39.986Z,19.92
2024-03-05T13:06:10.996Z,18.27
2024-03-05T13:08:39.690Z,23.45
2024-03-05T13:11:08.086Z,20.52
2024-03-05T13:13:35.652Z,21.38
2024-03-05T13:16:04.347Z,20.02
2024-03-05T13:18:31.877Z,18.85
2024-03-05T13:21:01.320Z,20.05
2024-03-05T13:23:30.993Z,19.90
2024-03-05T13:25:59.812Z,21.50
2024-03-05T13:28:30.320Z,21.50
2024-03-05T13:30:58.685Z,21.27
2024-03-05T13:33:27.030Z,22.23
2024-03-05T13:35:54.756Z,18.20
2024-03-05T13:38:24.476Z,21.85
2024-03-05T13:40:52.672Z,21.23
2024-03-05T13:43:20.872Z,23.60
2024-03-05T13:45:49.117Z,17.52
2024-03-05T13:48:17.277Z,19.67
2024-03-05T13:50:44.632Z,19.20
2024-03-05T13:53:15.337Z,16.67
2024-03-05T13:55:47.746Z,20.13
2024-03-05T13:58:15.791Z,18.90
2024-03-05T14:00:43.637Z,19.88
2024-03-05T14:03:13.537Z,20.42
2024-03-05T14:05:41.645Z,19.80
2024-03-05T14:08:10.484Z,22.02
2024-03-05T14:10:38.652Z,17.58
2024-03-05T14:13:09.081Z,22.88
2024-03-05T14:15:36.880Z,21.02
2024-03-05T14:18:08.099Z,21.42
2024-03-05T14:20:36.396Z,20.55
2024-03-05T14:23:12.574Z,23.17
2024-03-05T14:25:50.950Z,25.88
2024-03-05T14:31:00.604Z,27.00
2024-03-05T14:33:39.517Z,23.77
2024-03-05T14:36:28.738Z,19.75
2024-03-05T14:39:01.710Z,19.08
2024-03-05T14:41:44.323Z,25.08
2024-03-05T14:44:40.390Z,24.55
2024-03-05T14:47:13.573Z,23.05
2024-03-05T14:49:45.961Z,24.33
2024-03-05T14:52:19.448Z,18.98
2024-03-05T14:54:51.845Z,22.40
2024-03-05T14:57:22.651Z,22.50
2024-03-05T15:00:10.839Z,23.40
2024-03-05T15:02:42.655Z,27.38
2024-03-05T15:05:23.053Z,49.42
2024-03-05T15:08:11.062Z,42.45
2024-03-05T15:10:44.672Z,27.35
2024-03-05T15:13:14.437Z,24.35
2024-03-05T15:15:57.824Z,25.08
2024-03-05T15:18:40.593Z,23.27
2024-03-05T15:21:38.595Z,23.42
2024-03-05T15:24:16.585Z,21.10
2024-03-05T15:27:04.345Z,21.27
2024-03-05T15:29:47.467Z,27.20
2024-03-05T15:32:23.631Z,23.73
2024-03-05T15:34:56.330Z,24.33
2024-03-05T15:37:25.288Z,25.08
2024-03-05T15:39:52.902Z,22.15
2024-03-05T15:42:21.073Z,25.00
2024-03-05T15:44:48.486Z,22.40
2024-03-05T15:47:16.516Z,21.55
2024-03-05T15:49:59.594Z,25.63
2024-03-05T15:52:31.556Z,26.35
2024-03-05T15:54:59.326Z,23.85
2024-03-05T15:57:33.126Z,36.70
2024-03-05T16:00:01.643Z,28.67
2024-03-05T16:02:29.820Z,23.80
2024-03-05T16:05:17.826Z,30.27
2024-03-05T16:07:57.026Z,36.67
2024-03-05T16:10:35.587Z,33.72
2024-03-05T16:13:11.515Z,39.08
2024-03-05T16:18:08.387Z,25.55
2024-03-05T16:20:41.005Z,25.25
2024-03-05T16:23:09.480Z,27.50
2024-03-05T16:25:41.415Z,25.25
2024-03-05T16:28:11.011Z,25.90
2024-03-05T16:30:39.462Z,22.83
2024-03-05T16:33:07.974Z,21.58
2024-03-05T16:35:40.981Z,20.75
2024-03-05T16:38:13.136Z,22.65
2024-03-05T16:40:40.992Z,22.15
2024-03-05T16:43:08.673Z,25.08
2024-03-05T16:45:37.059Z,25.98
2024-03-05T16:48:11.724Z,25.05
2024-03-05T16:50:44.987Z,23.92
2024-03-05T16:53:12.815Z,24.83
2024-03-05T16:55:40.201Z,21.73
2024-03-05T16:58:20.451Z,31.27
2024-03-05T17:00:55.153Z,29.73
2024-03-05T17:03:27.024Z,26.65
2024-03-05T17:05:59.981Z,24.95
2024-03-05T17:08:31.989Z,22.88
2024-03-05T17:10:59.530Z,25.92
2024-03-05T17:13:33.223Z,25.20
2024-03-05T17:16:01.588Z,25.13
2024-03-05T17:18:29.951Z,29.95
2024-03-05T17:20:59.546Z,25.00
2024-03-05T17:23:32.413Z,24.52
2024-03-05T17:26:13.793Z,24.88
2024-03-05T17:28:47.493Z,23.52
2024-03-05T17:31:18.692Z,27.08
2024-03-05T17:34:04.651Z,25.67
2024-03-05T17:36:51.440Z,24.80
2024-03-05T17:39:21.378Z,26.10
2024-03-05T17:41:53.372Z,25.20
2024-03-05T17:44:23.015Z,26.90
2024-03-05T17:46:56.149Z,26.65
2024-03-05T17:49:35.136Z,28.42
2024-03-05T17:52:05.718Z,27.52
2024-03-05T17:54:33.796Z,23.35
2024-03-05T17:57:01.172Z,28.13
2024-03-05T17:59:33.973Z,27.42
2024-03-05T18:02:01.291Z,26.92
2024-03-05T18:04:42.877Z,29.33
2024-03-05T18:07:14.722Z,25.40
2024-03-05T18:09:47.736Z,31.98
2024-03-05T18:12:23.903Z,39.42
2024-03-05T18:15:11.054Z,39.00
2024-03-05T18:17:45.381Z,38.72
2024-03-05T18:20:22.374Z,39.47
2024-03-05T18:22:51.393Z,34.60
2024-03-05T18:25:24.871Z,33.90
2024-03-05T18:28:10.208Z,36.38
2024-03-05T18:30:40.480Z,34.50
2024-03-05T18:33:21.364Z,31.90
2024-03-05T18:39:04.653Z,27.85
2024-03-05T18:41:47.939Z,26.77
2024-03-05T18:44:32.011Z,34.50
2024-03-05T18:50:10.130Z,35.75
2024-03-05T18:52:51.027Z,37.45
2024-03-05T18:55:33.119Z,37.60
2024-03-05T18:58:10.496Z,31.88
2024-03-05T19:00:57.105Z,34.72
2024-03-05T19:03:29.667Z,31.00
2024-03-05T19:06:03.567Z,31.90
2024-03-05T19:08:53.807Z,33.13
2024-03-05T19:11:28.978Z,31.13
2024-03-05T19:14:08.226Z,35.90
2024-03-05T19:19:36.687Z,35.13
2024-03-05T19:22:04.515Z,32.08
2024-03-05T19:24:41.231Z,35.63
2024-03-05T19:27:16.188Z,33.70
2024-03-05T19:29:44.726Z,32.60
2024-03-05T19:32:22.413Z,35.38
2024-03-05T19:34:50.632Z,36.67
2024-03-05T19:37:36.126Z,38.67
2024-03-05T19:40:10.990Z,39.40
2024-03-05T19:42:46.911Z,35.45
2024-03-05T19:45:21.185Z,39.58
2024-03-05T19:47:54.863Z,34.88
2024-03-05T19:50:29.474Z,39.20
2024-03-05T19:53:02.518Z,31.98
2024-03-05T19:55:43.531Z,37.08
2024-03-05T19:58:22.701Z,34.65
2024-03-05T20:03:33.720Z,33.10
2024-03-05T20:06:15.187Z,34.70
2024-03-05T20:08:45.216Z,38.78
2024-03-05T20:11:24.143Z,34.55
2024-03-05T20:13:58.647Z,34.17
2024-03-05T20:16:27.582Z,39.90
2024-03-05T20:18:55.203Z,34.00
2024-03-05T20:21:23.029Z,36.83
2024-03-05T20:23:50.549Z,37.38
2024-03-05T20:26:23.185Z,37.65
2024-03-05T20:28:51.325Z,38.47
2024-03-05T20:31:20.677Z,43.38
2024-03-05T20:33:48.622Z,35.55
2024-03-05T20:36:25.391Z,40.30
2024-03-05T20:38:55.966Z,40.00
2024-03-05T20:41:24.642Z,40.80
2024-03-05T20:43:58.082Z,40.60
2024-03-05T20:46:31.440Z,43.33
2024-03-05T20:48:59.415Z,46.53
2024-03-05T20:51:27.413Z,41.33
2024-03-05T20:54:00.495Z,37.20
2024-03-05T20:56:33.126Z,36.17
2024-03-05T20:59:03.247Z,36.80
2024-03-05T21:01:41.558Z,34.95
2024-03-05T21:04:18.453Z,41.40
2024-03-05T21:06:46.466Z,37.33
2024-03-05T21:09:14.485Z,38.25
2024-03-05T21:11:42.588Z,36.28
2024-03-05T21:14:10.181Z,39.08
2024-03-05T21:16:45.558Z,39.53
2024-03-05T21:19:13.350Z,37.13
2024-03-05T21:21:49.393Z,35.25
2024-03-05T21:24:17.167Z,36.33
2024-03-05T21:29:20.928Z,34.63
2024-03-05T21:31:58.458Z,41.38
2024-03-05T21:34:26.158Z,32.97
2024-03-05T21:36:54.103Z,37.88
2024-03-05T21:39:26.485Z,36.45
2024-03-05T21:41:59.151Z,37.58
2024-03-05T21:44:34.792Z,38.50
2024-03-05T21:47:10.804Z,35.15
2024-03-05T21:49:39.512Z,34.05
2024-03-05T21:52:15.283Z,34.65
2024-03-05T21:54:45.878Z,30.58
2024-03-05T21:57:18.002Z,35.10
2024-03-05T21:59:45.460Z,36.88
2024-03-05T22:02:30.461Z,36.10
2024-03-05T22:05:02.542Z,36.22
2024-03-05T22:07:35.496Z,35.42
2024-03-05T22:10:03.807Z,36.20
2024-03-05T22:12:31.520Z,33.90
2024-03-05T22:15:03.461Z,34.10
2024-03-05T22:17:33.019Z,36.65
2024-03-05T22:20:01.099Z,33.05
2024-03-05T22:22:29.192Z,35.47
2024-03-05T22:24:57.727Z,37.97
2024-03-05T22:27:30.427Z,33.05
2024-03-05T22:29:57.921Z,34.78
2024-03-05T22:32:26.196Z,35.60
2024-03-05T22:34:55.933Z,32.65
2024-03-05T22:37:24.248Z,34.72
2024-03-05T22:39:56.696Z,38.22
2024-03-05T22:42:24.625Z,38.88
2024-03-05T22:44:52.110Z,35.65
2024-03-05T22:47:19.979Z,38.83
2024-03-05T22:49:49.240Z,35.85
2024-03-05T22:52:22.961Z,37.35
2024-03-05T22:54:50.404Z,37.42
2024-03-05T22:57:24.015Z,31.65
2024-03-05T22:59:51.420Z,36.90
2024-03-05T23:02:19.490Z,34.83
2024-03-05T23:04:47.043Z,34.60
2024-03-05T23:07:24.065Z,37.35
2024-03-05T23:09:51.444Z,37.95
2024-03-05T23:12:19.302Z,35.40
2024-03-05T23:14:46.769Z,36.00
2024-03-05T23:17:19.238Z,38.08
2024-03-05T23:19:46.827Z,38.67
2024-03-05T23:22:14.753Z,35.00
2024-03-05T23:24:47.000Z,34.67
2024-03-05T23:29:42.650Z,34.25
2024-03-05T23:32:17.810Z,32.47
2024-03-05T23:34:45.263Z,33.13
2024-03-05T23:37:18.334Z,41.65
2024-03-05T23:39:47.173Z,59.15
2024-03-05T23:42:15.225Z,74.72
2024-03-05T23:44:42.680Z,68.25
2024-03-05T23:47:15.300Z,77.18
2024-03-05T23:49:50.513Z,66.80
2024-03-05T23:52:18.351Z,79.68
2024-03-05T23:54:47.570Z,55.42
2024-03-05T23:57:22.953Z,59.90
2024-03-05T23:59:53.252Z,44.83
